sensor_id;sensor_type;location;lat;lon;timestamp;P1;durP1;ratioP1;P2;durP2;ratioP2
22230;SDS011;11284;48.086;-1.652;2023-02-28T00:00:22;10.35;;;5.63;;
22230;SDS011;11284;48.086;-1.652;2023-02-28T00:02:48;11.90;;;6.25;;
22230;SDS011;11284;48.086;-1.652;2023-02-28T00:05:16;8.02;;;5.57;;
22230;SDS011;11284;48.086;-1.652;2023-02-28T00:07:42;13.63;;;6.10;;
22230;SDS011;11284;48.086;-1.652;2023-02-28T00:10:09;9.80;;;5.82;;
22230;SDS011;11284;48.086;-1.652;2023-02-28T00:12:36;10.57;;;6.13;;
22230;SDS011;11284;48.086;-1.652;2023-02-28T00:15:06;13.95;;;6.10;;
22230;SDS011;11284;48.086;-1.652;2023-02-28T00:17:33;10.82;;;6.00;;
22230;SDS011;11284;48.086;-1.652;2023-02-28T00:19:59;10.40;;;6.13;;
22230;SDS011;11284;48.086;-1.652;2023-02-28T00:22:29;8.55;;;5.30;;
22230;SDS011;11284;48.086;-1.652;2023-02-28T00:24:55;11.57;;;6.00;;
22230;SDS011;11284;48.086;-1.652;2023-02-28T00:27:21;9.93;;;6.05;;
22230;SDS011;11284;48.086;-1.652;2023-02-28T00:29:47;13.70;;;6.15;;
22230;SDS011;11284;48.086;-1.652;2023-02-28T00:32:13;10.77;;;6.20;;
22230;SDS011;11284;48.086;-1.652;2023-02-28T00:34:40;12.35;;;6.00;;
22230;SDS011;11284;48.086;-1.652;2023-02-28T00:37:06;9.80;;;5.68;;
22230;SDS011;11284;48.086;-1.652;2023-02-28T00:39:33;11.02;;;6.60;;
22230;SDS011;11284;48.086;-1.652;2023-02-28T00:42:00;10.77;;;6.30;;
22230;SDS011;11284;48.086;-1.652;2023-02-28T00:44:26;11.15;;;6.35;;
22230;SDS011;11284;48.086;-1.652;2023-02-28T00:46:52;11.02;;;5.80;;
22230;SDS011;11284;48.086;-1.652;2023-02-28T00:49:19;10.77;;;5.60;;
22230;SDS011;11284;48.086;-1.652;2023-02-28T00:51:45;12.02;;;6.00;;
22230;SDS011;11284;48.086;-1.652;2023-02-28T00:54:11;10.55;;;6.10;;
22230;SDS011;11284;48.086;-1.652;2023-02-28T00:56:37;14.65;;;6.00;;
22230;SDS011;11284;48.086;-1.652;2023-02-28T00:59:04;10.68;;;6.20;;
22230;SDS011;11284;48.086;-1.652;2023-02-28T01:01:30;10.00;;;5.95;;
22230;SDS011;11284;48.086;-1.652;2023-02-28T01:03:56;10.95;;;5.82;;
22230;SDS011;11284;48.086;-1.652;2023-02-28T01:06:22;10.32;;;5.43;;
22230;SDS011;11284;48.086;-1.652;2023-02-28T01:08:48;8.55;;;5.05;;
22230;SDS011;11284;48.086;-1.652;2023-02-28T01:11:15;9.35;;;5.32;;
22230;SDS011;11284;48.086;-1.652;2023-02-28T01:13:41;10.02;;;6.13;;
22230;SDS011;11284;48.086;-1.652;2023-02-28T01:16:07;10.60;;;5.65;;
22230;SDS011;11284;48.086;-1.652;2023-02-28T01:18:34;10.73;;;5.60;;
22230;SDS011;11284;48.086;-1.652;2023-02-28T01:21:03;9.10;;;5.35;;
22230;SDS011;11284;48.086;-1.652;2023-02-28T01:23:30;9.05;;;5.45;;
22230;SDS011;11284;48.086;-1.652;2023-02-28T01:25:55;8.93;;;5.40;;
22230;SDS011;11284;48.086;-1.652;2023-02-28T01:28:22;11.02;;;5.93;;
22230;SDS011;11284;48.086;-1.652;2023-02-28T01:30:49;10.38;;;5.60;;
22230;SDS011;11284;48.086;-1.652;2023-02-28T01:33:15;11.25;;;6.03;;
22230;SDS011;11284;48.086;-1.652;2023-02-28T01:35:41;11.40;;;5.85;;
22230;SDS011;11284;48.086;-1.652;2023-02-28T01:38:07;8.93;;;5.28;;
22230;SDS011;11284;48.086;-1.652;2023-02-28T01:40:33;11.30;;;5.35;;
22230;SDS011;11284;48.086;-1.652;2023-02-28T01:42:59;8.93;;;5.38;;
22230;SDS011;11284;48.086;-1.652;2023-02-28T01:45:26;13.18;;;5.93;;
22230;SDS011;11284;48.086;-1.652;2023-02-28T01:47:59;8.30;;;5.38;;
22230;SDS011;11284;48.086;-1.652;2023-02-28T01:50:27;10.98;;;6.10;;
22230;SDS011;11284;48.086;-1.652;2023-02-28T01:52:54;10.68;;;5.20;;
22230;SDS011;11284;48.086;-1.652;2023-02-28T01:55:21;10.05;;;5.55;;
22230;SDS011;11284;48.086;-1.652;2023-02-28T01:57:49;10.70;;;5.93;;
22230;SDS011;11284;48.086;-1.652;2023-02-28T02:00:17;9.05;;;5.22;;
22230;SDS011;11284;48.086;-1.652;2023-02-28T02:02:45;8.45;;;5.38;;
22230;SDS011;11284;48.086;-1.652;2023-02-28T02:05:14;11.07;;;5.03;;
22230;SDS011;11284;48.086;-1.652;2023-02-28T02:07:42;10.98;;;6.55;;
22230;SDS011;11284;48.086;-1.652;2023-02-28T02:15:15;11.10;;;5.82;;
22230;SDS011;11284;48.086;-1.652;2023-02-28T02:17:43;10.85;;;6.03;;
22230;SDS011;11284;48.086;-1.652;2023-02-28T02:30:43;9.10;;;5.57;;
22230;SDS011;11284;48.086;-1.652;2023-02-28T02:46:20;9.40;;;5.95;;
22230;SDS011;11284;48.086;-1.652;2023-02-28T02:48:46;11.63;;;6.40;;
22230;SDS011;11284;48.086;-1.652;2023-02-28T02:51:14;9.98;;;5.40;;
22230;SDS011;11284;48.086;-1.652;2023-02-28T02:53:47;9.70;;;5.60;;
22230;SDS011;11284;48.086;-1.652;2023-02-28T02:56:15;10.25;;;5.80;;
22230;SDS011;11284;48.086;-1.652;2023-02-28T02:58:42;9.05;;;5.82;;
22230;SDS011;11284;48.086;-1.652;2023-02-28T03:01:17;9.20;;;5.82;;
22230;SDS011;11284;48.086;-1.652;2023-02-28T03:03:52;8.45;;;5.80;;
22230;SDS011;11284;48.086;-1.652;2023-02-28T03:06:18;10.05;;;5.85;;
22230;SDS011;11284;48.086;-1.652;2023-02-28T03:08:44;10.93;;;6.40;;
22230;SDS011;11284;48.086;-1.652;2023-02-28T03:11:12;9.82;;;6.00;;
22230;SDS011;11284;48.086;-1.652;2023-02-28T03:24:23;9.98;;;6.28;;
22230;SDS011;11284;48.086;-1.652;2023-02-28T03:26:54;9.73;;;6.18;;
22230;SDS011;11284;48.086;-1.652;2023-02-28T03:31:58;8.70;;;6.18;;
22230;SDS011;11284;48.086;-1.652;2023-02-28T03:34:36;11.77;;;6.63;;
22230;SDS011;11284;48.086;-1.652;2023-02-28T03:37:07;10.82;;;6.65;;
22230;SDS011;11284;48.086;-1.652;2023-02-28T03:39:38;12.82;;;6.25;;
22230;SDS011;11284;48.086;-1.652;2023-02-28T03:42:25;10.10;;;6.43;;
22230;SDS011;11284;48.086;-1.652;2023-02-28T03:44:56;12.93;;;6.53;;
22230;SDS011;11284;48.086;-1.652;2023-02-28T03:50:05;9.57;;;7.25;;
22230;SDS011;11284;48.086;-1.652;2023-02-28T03:52:34;10.93;;;6.70;;
22230;SDS011;11284;48.086;-1.652;2023-02-28T03:55:02;10.43;;;6.40;;
22230;SDS011;11284;48.086;-1.652;2023-02-28T03:57:34;10.98;;;6.55;;
22230;SDS011;11284;48.086;-1.652;2023-02-28T04:00:07;11.10;;;7.07;;
22230;SDS011;11284;48.086;-1.652;2023-02-28T04:02:35;12.25;;;7.25;;
22230;SDS011;11284;48.086;-1.652;2023-02-28T04:05:01;12.38;;;7.25;;
22230;SDS011;11284;48.086;-1.652;2023-02-28T04:07:31;12.35;;;7.47;;
22230;SDS011;11284;48.086;-1.652;2023-02-28T04:09:57;15.93;;;7.18;;
22230;SDS011;11284;48.086;-1.652;2023-02-28T04:12:23;10.45;;;6.65;;
22230;SDS011;11284;48.086;-1.652;2023-02-28T04:14:50;12.82;;;7.38;;
22230;SDS011;11284;48.086;-1.652;2023-02-28T04:17:16;11.60;;;7.10;;
22230;SDS011;11284;48.086;-1.652;2023-02-28T04:19:42;11.38;;;7.10;;
22230;SDS011;11284;48.086;-1.652;2023-02-28T04:22:09;12.50;;;7.57;;
22230;SDS011;11284;48.086;-1.652;2023-02-28T04:24:35;12.40;;;7.40;;
22230;SDS011;11284;48.086;-1.652;2023-02-28T04:27:01;13.13;;;7.78;;
22230;SDS011;11284;48.086;-1.652;2023-02-28T04:29:28;11.80;;;7.38;;
22230;SDS011;11284;48.086;-1.652;2023-02-28T04:31:55;11.55;;;7.25;;
22230;SDS011;11284;48.086;-1.652;2023-02-28T04:34:25;11.48;;;7.35;;
22230;SDS011;11284;48.086;-1.652;2023-02-28T04:36:51;11.38;;;7.18;;
22230;SDS011;11284;48.086;-1.652;2023-02-28T04:39:19;12.32;;;7.63;;
22230;SDS011;11284;48.086;-1.652;2023-02-28T04:41:45;13.00;;;7.45;;
22230;SDS011;11284;48.086;-1.652;2023-02-28T04:44:12;11.32;;;6.90;;
22230;SDS011;11284;48.086;-1.652;2023-02-28T04:46:38;11.48;;;7.68;;
22230;SDS011;11284;48.086;-1.652;2023-02-28T04:49:04;8.88;;;7.07;;
22230;SDS011;11284;48.086;-1.652;2023-02-28T04:51:30;12.32;;;8.00;;
22230;SDS011;11284;48.086;-1.652;2023-02-28T04:53:56;11.93;;;8.02;;
22230;SDS011;11284;48.086;-1.652;2023-02-28T04:56:22;11.10;;;8.05;;
22230;SDS011;11284;48.086;-1.652;2023-02-28T04:58:49;11.45;;;8.15;;
22230;SDS011;11284;48.086;-1.652;2023-02-28T05:01:24;11.40;;;7.63;;
22230;SDS011;11284;48.086;-1.652;2023-02-28T05:06:16;11.98;;;8.18;;
22230;SDS011;11284;48.086;-1.652;2023-02-28T05:08:42;12.15;;;7.90;;
22230;SDS011;11284;48.086;-1.652;2023-02-28T05:11:16;14.25;;;8.80;;
22230;SDS011;11284;48.086;-1.652;2023-02-28T05:13:42;13.73;;;7.95;;
22230;SDS011;11284;48.086;-1.652;2023-02-28T05:16:08;13.15;;;8.40;;
22230;SDS011;11284;48.086;-1.652;2023-02-28T05:18:35;13.10;;;8.77;;
22230;SDS011;11284;48.086;-1.652;2023-02-28T05:21:01;14.52;;;9.00;;
22230;SDS011;11284;48.086;-1.652;2023-02-28T05:23:27;12.05;;;8.15;;
22230;SDS011;11284;48.086;-1.652;2023-02-28T05:25:53;13.93;;;8.75;;
22230;SDS011;11284;48.086;-1.652;2023-02-28T05:28:20;13.43;;;9.05;;
22230;SDS011;11284;48.086;-1.652;2023-02-28T05:30:46;13.25;;;8.40;;
22230;SDS011;11284;48.086;-1.652;2023-02-28T05:33:12;13.25;;;8.75;;
22230;SDS011;11284;48.086;-1.652;2023-02-28T05:35:39;13.32;;;9.20;;
22230;SDS011;11284;48.086;-1.652;2023-02-28T05:38:05;15.25;;;8.93;;
22230;SDS011;11284;48.086;-1.652;2023-02-28T05:40:31;15.63;;;9.50;;
22230;SDS011;11284;48.086;-1.652;2023-02-28T05:42:57;13.10;;;9.38;;
22230;SDS011;11284;48.086;-1.652;2023-02-28T05:45:23;13.65;;;8.68;;
22230;SDS011;11284;48.086;-1.652;2023-02-28T05:47:53;13.38;;;9.30;;
22230;SDS011;11284;48.086;-1.652;2023-02-28T05:50:19;12.82;;;9.07;;
22230;SDS011;11284;48.086;-1.652;2023-02-28T05:52:52;12.82;;;9.15;;
22230;SDS011;11284;48.086;-1.652;2023-02-28T05:55:18;11.87;;;8.93;;
22230;SDS011;11284;48.086;-1.652;2023-02-28T05:57:44;15.68;;;9.70;;
22230;SDS011;11284;48.086;-1.652;2023-02-28T06:00:10;12.88;;;9.75;;
22230;SDS011;11284;48.086;-1.652;2023-02-28T06:02:38;15.65;;;10.20;;
22230;SDS011;11284;48.086;-1.652;2023-02-28T06:05:05;14.73;;;9.57;;
22230;SDS011;11284;48.086;-1.652;2023-02-28T06:07:32;16.10;;;9.68;;
22230;SDS011;11284;48.086;-1.652;2023-02-28T06:09:58;14.57;;;10.05;;
22230;SDS011;11284;48.086;-1.652;2023-02-28T06:12:24;15.35;;;9.48;;
22230;SDS011;11284;48.086;-1.652;2023-02-28T06:14:50;15.20;;;10.70;;
22230;SDS011;11284;48.086;-1.652;2023-02-28T06:17:16;13.80;;;10.00;;
22230;SDS011;11284;48.086;-1.652;2023-02-28T06:19:42;13.10;;;10.07;;
22230;SDS011;11284;48.086;-1.652;2023-02-28T06:22:08;13.15;;;10.40;;
22230;SDS011;11284;48.086;-1.652;2023-02-28T06:24:34;13.90;;;10.43;;
22230;SDS011;11284;48.086;-1.652;2023-02-28T06:27:00;14.10;;;10.18;;
22230;SDS011;11284;48.086;-1.652;2023-02-28T06:29:30;14.45;;;10.57;;
22230;SDS011;11284;48.086;-1.652;2023-02-28T06:31:56;16.52;;;10.50;;
22230;SDS011;11284;48.086;-1.652;2023-02-28T06:34:22;12.90;;;10.60;;
22230;SDS011;11284;48.086;-1.652;2023-02-28T06:36:49;15.05;;;10.75;;
22230;SDS011;11284;48.086;-1.652;2023-02-28T06:39:15;14.73;;;10.27;;
22230;SDS011;11284;48.086;-1.652;2023-02-28T06:41:41;15.90;;;10.73;;
22230;SDS011;11284;48.086;-1.652;2023-02-28T06:44:11;13.52;;;10.55;;
22230;SDS011;11284;48.086;-1.652;2023-02-28T06:46:38;16.02;;;11.05;;
22230;SDS011;11284;48.086;-1.652;2023-02-28T06:49:04;14.35;;;10.68;;
22230;SDS011;11284;48.086;-1.652;2023-02-28T06:51:33;15.88;;;11.25;;
22230;SDS011;11284;48.086;-1.652;2023-02-28T06:53:59;15.07;;;11.02;;
22230;SDS011;11284;48.086;-1.652;2023-02-28T06:56:25;15.80;;;11.77;;
22230;SDS011;11284;48.086;-1.652;2023-02-28T06:58:51;14.60;;;11.43;;
22230;SDS011;11284;48.086;-1.652;2023-02-28T07:01:21;15.35;;;11.85;;
22230;SDS011;11284;48.086;-1.652;2023-02-28T07:03:48;20.45;;;11.52;;
22230;SDS011;11284;48.086;-1.652;2023-02-28T07:06:17;17.48;;;12.02;;
22230;SDS011;11284;48.086;-1.652;2023-02-28T07:08:44;14.82;;;11.73;;
22230;SDS011;11284;48.086;-1.652;2023-02-28T07:11:10;19.65;;;12.32;;
22230;SDS011;11284;48.086;-1.652;2023-02-28T07:13:36;15.52;;;11.63;;
22230;SDS011;11284;48.086;-1.652;2023-02-28T07:16:03;17.02;;;12.02;;
22230;SDS011;11284;48.086;-1.652;2023-02-28T07:18:30;17.70;;;11.88;;
22230;SDS011;11284;48.086;-1.652;2023-02-28T07:20:56;15.43;;;11.70;;
22230;SDS011;11284;48.086;-1.652;2023-02-28T07:23:22;16.30;;;12.25;;
22230;SDS011;11284;48.086;-1.652;2023-02-28T07:25:49;18.90;;;12.75;;
22230;SDS011;11284;48.086;-1.652;2023-02-28T07:28:15;18.77;;;13.02;;
22230;SDS011;11284;48.086;-1.652;2023-02-28T07:30:41;17.17;;;12.90;;
22230;SDS011;11284;48.086;-1.652;2023-02-28T07:33:07;17.75;;;12.18;;
22230;SDS011;11284;48.086;-1.652;2023-02-28T07:35:33;18.95;;;12.35;;
22230;SDS011;11284;48.086;-1.652;2023-02-28T07:38:00;15.68;;;12.35;;
22230;SDS011;11284;48.086;-1.652;2023-02-28T07:40:26;18.90;;;12.63;;
22230;SDS011;11284;48.086;-1.652;2023-02-28T07:42:52;18.42;;;12.88;;
22230;SDS011;11284;48.086;-1.652;2023-02-28T07:45:18;18.90;;;13.35;;
22230;SDS011;11284;48.086;-1.652;2023-02-28T07:47:44;19.92;;;13.25;;
22230;SDS011;11284;48.086;-1.652;2023-02-28T07:50:12;17.75;;;12.88;;
22230;SDS011;11284;48.086;-1.652;2023-02-28T07:52:38;20.27;;;14.38;;
22230;SDS011;11284;48.086;-1.652;2023-02-28T07:55:05;20.73;;;13.82;;
22230;SDS011;11284;48.086;-1.652;2023-02-28T07:57:32;23.05;;;14.52;;
22230;SDS011;11284;48.086;-1.652;2023-02-28T07:59:58;18.20;;;13.18;;
22230;SDS011;11284;48.086;-1.652;2023-02-28T08:02:24;19.13;;;14.13;;
22230;SDS011;11284;48.086;-1.652;2023-02-28T08:04:50;22.10;;;16.05;;
22230;SDS011;11284;48.086;-1.652;2023-02-28T08:07:17;23.52;;;17.27;;
22230;SDS011;11284;48.086;-1.652;2023-02-28T08:09:43;21.40;;;14.38;;
22230;SDS011;11284;48.086;-1.652;2023-02-28T08:12:09;19.70;;;14.18;;
22230;SDS011;11284;48.086;-1.652;2023-02-28T08:14:36;22.42;;;15.98;;
22230;SDS011;11284;48.086;-1.652;2023-02-28T08:17:02;20.67;;;14.60;;
22230;SDS011;11284;48.086;-1.652;2023-02-28T08:19:28;20.35;;;13.98;;
22230;SDS011;11284;48.086;-1.652;2023-02-28T08:21:55;20.70;;;14.63;;
22230;SDS011;11284;48.086;-1.652;2023-02-28T08:24:21;21.20;;;15.55;;
22230;SDS011;11284;48.086;-1.652;2023-02-28T08:26:47;21.83;;;15.10;;
22230;SDS011;11284;48.086;-1.652;2023-02-28T08:29:13;19.58;;;13.85;;
22230;SDS011;11284;48.086;-1.652;2023-02-28T08:31:40;21.77;;;13.95;;
22230;SDS011;11284;48.086;-1.652;2023-02-28T08:34:07;17.80;;;14.15;;
22230;SDS011;11284;48.086;-1.652;2023-02-28T08:36:33;20.42;;;14.73;;
22230;SDS011;11284;48.086;-1.652;2023-02-28T08:38:59;19.83;;;14.52;;
22230;SDS011;11284;48.086;-1.652;2023-02-28T08:41:25;20.73;;;15.13;;
22230;SDS011;11284;48.086;-1.652;2023-02-28T08:43:51;19.83;;;15.65;;
22230;SDS011;11284;48.086;-1.652;2023-02-28T08:46:18;19.60;;;14.38;;
22230;SDS011;11284;48.086;-1.652;2023-02-28T08:48:44;17.67;;;13.82;;
22230;SDS011;11284;48.086;-1.652;2023-02-28T08:51:15;19.15;;;14.45;;
22230;SDS011;11284;48.086;-1.652;2023-02-28T08:53:44;19.75;;;13.45;;
22230;SDS011;11284;48.086;-1.652;2023-02-28T08:56:14;19.55;;;13.48;;
22230;SDS011;11284;48.086;-1.652;2023-02-28T08:58:41;19.17;;;14.00;;
22230;SDS011;11284;48.086;-1.652;2023-02-28T09:01:11;19.77;;;14.23;;
22230;SDS011;11284;48.086;-1.652;2023-02-28T09:03:37;17.70;;;13.95;;
22230;SDS011;11284;48.086;-1.652;2023-02-28T09:06:04;18.58;;;12.95;;
22230;SDS011;11284;48.086;-1.652;2023-02-28T09:08:30;20.15;;;13.40;;
22230;SDS011;11284;48.086;-1.652;2023-02-28T09:10:56;17.15;;;12.85;;
22230;SDS011;11284;48.086;-1.652;2023-02-28T09:13:23;18.13;;;12.90;;
22230;SDS011;11284;48.086;-1.652;2023-02-28T09:15:49;19.30;;;12.15;;
22230;SDS011;11284;48.086;-1.652;2023-02-28T09:18:15;19.17;;;12.13;;
22230;SDS011;11284;48.086;-1.652;2023-02-28T09:20:42;17.13;;;12.63;;
22230;SDS011;11284;48.086;-1.652;2023-02-28T09:23:09;15.82;;;11.80;;
22230;SDS011;11284;48.086;-1.652;2023-02-28T09:25:35;17.05;;;11.32;;
22230;SDS011;11284;48.086;-1.652;2023-02-28T09:28:01;17.35;;;10.70;;
22230;SDS011;11284;48.086;-1.652;2023-02-28T09:30:28;14.20;;;10.23;;
22230;SDS011;11284;48.086;-1.652;2023-02-28T09:32:54;14.90;;;10.38;;
22230;SDS011;11284;48.086;-1.652;2023-02-28T09:35:23;15.80;;;10.18;;
22230;SDS011;11284;48.086;-1.652;2023-02-28T09:37:51;13.75;;;10.00;;
22230;SDS011;11284;48.086;-1.652;2023-02-28T09:40:18;14.73;;;10.15;;
22230;SDS011;11284;48.086;-1.652;2023-02-28T09:42:48;14.77;;;9.73;;
22230;SDS011;11284;48.086;-1.652;2023-02-28T09:47:44;12.95;;;9.00;;
22230;SDS011;11284;48.086;-1.652;2023-02-28T09:50:33;13.40;;;8.75;;
22230;SDS011;11284;48.086;-1.652;2023-02-28T09:53:01;13.88;;;8.90;;
22230;SDS011;11284;48.086;-1.652;2023-02-28T09:57:56;10.93;;;7.45;;
22230;SDS011;11284;48.086;-1.652;2023-02-28T10:05:36;11.15;;;7.00;;
22230;SDS011;11284;48.086;-1.652;2023-02-28T10:08:11;9.45;;;6.22;;
22230;SDS011;11284;48.086;-1.652;2023-02-28T10:10:45;9.98;;;6.75;;
22230;SDS011;11284;48.086;-1.652;2023-02-28T10:13:14;8.68;;;5.85;;
22230;SDS011;11284;48.086;-1.652;2023-02-28T10:15:41;10.75;;;5.93;;
22230;SDS011;11284;48.086;-1.652;2023-02-28T10:18:11;9.75;;;6.57;;
22230;SDS011;11284;48.086;-1.652;2023-02-28T10:20:39;10.00;;;6.40;;
22230;SDS011;11284;48.086;-1.652;2023-02-28T10:23:20;7.90;;;5.07;;
22230;SDS011;11284;48.086;-1.652;2023-02-28T10:25:53;8.13;;;4.50;;
22230;SDS011;11284;48.086;-1.652;2023-02-28T10:28:19;8.00;;;5.03;;
22230;SDS011;11284;48.086;-1.652;2023-02-28T10:30:49;8.05;;;5.63;;
22230;SDS011;11284;48.086;-1.652;2023-02-28T10:35:51;8.52;;;5.55;;
22230;SDS011;11284;48.086;-1.652;2023-02-28T10:38:20;9.57;;;6.78;;
22230;SDS011;11284;48.086;-1.652;2023-02-28T10:40:46;10.57;;;6.40;;
22230;SDS011;11284;48.086;-1.652;2023-02-28T10:45:39;10.00;;;6.18;;
22230;SDS011;11284;48.086;-1.652;2023-02-28T10:55:36;10.15;;;5.70;;
22230;SDS011;11284;48.086;-1.652;2023-02-28T10:58:02;8.07;;;4.47;;
22230;SDS011;11284;48.086;-1.652;2023-02-28T11:00:32;7.75;;;4.55;;
22230;SDS011;11284;48.086;-1.652;2023-02-28T11:02:58;6.53;;;3.83;;
22230;SDS011;11284;48.086;-1.652;2023-02-28T11:05:25;6.40;;;3.70;;
22230;SDS011;11284;48.086;-1.652;2023-02-28T11:07:53;6.22;;;3.88;;
22230;SDS011;11284;48.086;-1.652;2023-02-28T11:10:19;5.93;;;3.88;;
22230;SDS011;11284;48.086;-1.652;2023-02-28T11:12:46;7.97;;;4.00;;
22230;SDS011;11284;48.086;-1.652;2023-02-28T11:15:26;6.13;;;4.00;;
22230;SDS011;11284;48.086;-1.652;2023-02-28T11:18:02;8.95;;;3.95;;
22230;SDS011;11284;48.086;-1.652;2023-02-28T11:20:33;7.57;;;3.88;;
22230;SDS011;11284;48.086;-1.652;2023-02-28T11:23:02;6.55;;;3.92;;
22230;SDS011;11284;48.086;-1.652;2023-02-28T11:25:30;7.65;;;4.13;;
22230;SDS011;11284;48.086;-1.652;2023-02-28T11:27:58;5.85;;;3.80;;
22230;SDS011;11284;48.086;-1.652;2023-02-28T11:32:52;5.88;;;3.38;;
22230;SDS011;11284;48.086;-1.652;2023-02-28T11:35:22;5.57;;;3.67;;
22230;SDS011;11284;48.086;-1.652;2023-02-28T11:37:48;7.95;;;4.05;;
22230;SDS011;11284;48.086;-1.652;2023-02-28T11:40:15;7.97;;;4.05;;
22230;SDS011;11284;48.086;-1.652;2023-02-28T11:52:54;7.80;;;4.38;;
22230;SDS011;11284;48.086;-1.652;2023-02-28T12:07:45;6.82;;;4.20;;
22230;SDS011;11284;48.086;-1.652;2023-02-28T12:26:15;8.18;;;3.97;;
22230;SDS011;11284;48.086;-1.652;2023-02-28T12:28:49;6.18;;;3.63;;
22230;SDS011;11284;48.086;-1.652;2023-02-28T12:31:18;8.00;;;3.80;;
22230;SDS011;11284;48.086;-1.652;2023-02-28T12:34:03;6.00;;;3.83;;
22230;SDS011;11284;48.086;-1.652;2023-02-28T12:36:31;8.13;;;4.10;;
22230;SDS011;11284;48.086;-1.652;2023-02-28T12:39:45;7.05;;;4.18;;
22230;SDS011;11284;48.086;-1.652;2023-02-28T12:41:49;7.95;;;4.43;;
22230;SDS011;11284;48.086;-1.652;2023-02-28T12:46:53;6.15;;;3.78;;
22230;SDS011;11284;48.086;-1.652;2023-02-28T12:49:22;7.40;;;4.00;;
22230;SDS011;11284;48.086;-1.652;2023-02-28T12:51:49;6.43;;;3.85;;
22230;SDS011;11284;48.086;-1.652;2023-02-28T12:59:17;6.85;;;3.38;;
22230;SDS011;11284;48.086;-1.652;2023-02-28T13:09:26;4.85;;;2.85;;
22230;SDS011;11284;48.086;-1.652;2023-02-28T13:11:54;4.80;;;2.97;;
22230;SDS011;11284;48.086;-1.652;2023-02-28T13:14:25;5.15;;;3.30;;
22230;SDS011;11284;48.086;-1.652;2023-02-28T13:19:37;5.90;;;3.22;;
22230;SDS011;11284;48.086;-1.652;2023-02-28T13:22:04;4.63;;;3.08;;
22230;SDS011;11284;48.086;-1.652;2023-02-28T13:24:50;6.68;;;3.30;;
22230;SDS011;11284;48.086;-1.652;2023-02-28T13:29:49;7.07;;;3.38;;
22230;SDS011;11284;48.086;-1.652;2023-02-28T13:47:41;5.28;;;3.45;;
22230;SDS011;11284;48.086;-1.652;2023-02-28T13:50:21;6.70;;;3.83;;
22230;SDS011;11284;48.086;-1.652;2023-02-28T13:52:51;6.55;;;3.50;;
22230;SDS011;11284;48.086;-1.652;2023-02-28T14:06:07;5.45;;;3.38;;
22230;SDS011;11284;48.086;-1.652;2023-02-28T14:08:34;5.22;;;3.60;;
22230;SDS011;11284;48.086;-1.652;2023-02-28T14:11:04;6.40;;;3.63;;
22230;SDS011;11284;48.086;-1.652;2023-02-28T14:13:39;6.28;;;4.28;;
22230;SDS011;11284;48.086;-1.652;2023-02-28T14:16:21;6.38;;;4.18;;
22230;SDS011;11284;48.086;-1.652;2023-02-28T14:18:58;6.50;;;3.97;;
22230;SDS011;11284;48.086;-1.652;2023-02-28T14:21:31;7.30;;;4.13;;
22230;SDS011;11284;48.086;-1.652;2023-02-28T14:29:27;5.50;;;3.80;;
22230;SDS011;11284;48.086;-1.652;2023-02-28T14:34:40;6.88;;;3.88;;
22230;SDS011;11284;48.086;-1.652;2023-02-28T14:37:10;6.28;;;3.55;;
22230;SDS011;11284;48.086;-1.652;2023-02-28T14:39:40;6.13;;;3.60;;
22230;SDS011;11284;48.086;-1.652;2023-02-28T14:42:24;5.22;;;3.58;;
22230;SDS011;11284;48.086;-1.652;2023-02-28T14:44:56;6.60;;;3.88;;
22230;SDS011;11284;48.086;-1.652;2023-02-28T14:47:22;5.38;;;3.47;;
22230;SDS011;11284;48.086;-1.652;2023-02-28T14:49:49;6.43;;;4.35;;
22230;SDS011;11284;48.086;-1.652;2023-02-28T14:52:17;7.00;;;4.57;;
22230;SDS011;11284;48.086;-1.652;2023-02-28T14:54:43;8.40;;;4.75;;
22230;SDS011;11284;48.086;-1.652;2023-02-28T15:02:37;7.53;;;5.00;;
22230;SDS011;11284;48.086;-1.652;2023-02-28T15:07:36;7.63;;;4.88;;
22230;SDS011;11284;48.086;-1.652;2023-02-28T15:12:40;7.45;;;5.10;;
22230;SDS011;11284;48.086;-1.652;2023-02-28T15:15:14;7.65;;;5.50;;
22230;SDS011;11284;48.086;-1.652;2023-02-28T15:17:40;10.43;;;5.57;;
22230;SDS011;11284;48.086;-1.652;2023-02-28T15:20:10;9.77;;;6.00;;
22230;SDS011;11284;48.086;-1.652;2023-02-28T15:22:37;9.15;;;6.13;;
22230;SDS011;11284;48.086;-1.652;2023-02-28T15:25:04;8.15;;;6.18;;
22230;SDS011;11284;48.086;-1.652;2023-02-28T15:27:32;9.02;;;6.18;;
22230;SDS011;11284;48.086;-1.652;2023-02-28T15:29:59;10.75;;;6.45;;
22230;SDS011;11284;48.086;-1.652;2023-02-28T15:32:32;12.25;;;6.78;;
22230;SDS011;11284;48.086;-1.652;2023-02-28T15:34:59;11.00;;;7.07;;
22230;SDS011;11284;48.086;-1.652;2023-02-28T15:40:17;8.05;;;6.45;;
22230;SDS011;11284;48.086;-1.652;2023-02-28T15:45:38;8.15;;;5.72;;
22230;SDS011;11284;48.086;-1.652;2023-02-28T15:48:09;8.73;;;6.22;;
22230;SDS011;11284;48.086;-1.652;2023-02-28T15:50:39;9.07;;;6.38;;
22230;SDS011;11284;48.086;-1.652;2023-02-28T15:53:05;12.10;;;7.70;;
22230;SDS011;11284;48.086;-1.652;2023-02-28T15:55:38;10.33;;;7.67;;
22230;SDS011;11284;48.086;-1.652;2023-02-28T15:58:04;10.23;;;8.32;;
22230;SDS011;11284;48.086;-1.652;2023-02-28T16:00:31;9.90;;;8.27;;
22230;SDS011;11284;48.086;-1.652;2023-02-28T16:03:00;11.68;;;8.48;;
22230;SDS011;11284;48.086;-1.652;2023-02-28T16:05:27;9.73;;;7.88;;
22230;SDS011;11284;48.086;-1.652;2023-02-28T16:07:56;10.85;;;8.25;;
22230;SDS011;11284;48.086;-1.652;2023-02-28T16:10:22;11.57;;;8.68;;
22230;SDS011;11284;48.086;-1.652;2023-02-28T16:12:52;12.65;;;8.70;;
22230;SDS011;11284;48.086;-1.652;2023-02-28T16:15:19;11.73;;;8.77;;
22230;SDS011;11284;48.086;-1.652;2023-02-28T16:17:46;14.80;;;9.90;;
22230;SDS011;11284;48.086;-1.652;2023-02-28T16:20:16;12.75;;;9.02;;
22230;SDS011;11284;48.086;-1.652;2023-02-28T16:22:44;12.25;;;8.43;;
22230;SDS011;11284;48.086;-1.652;2023-02-28T16:25:17;13.27;;;10.02;;
22230;SDS011;11284;48.086;-1.652;2023-02-28T16:27:45;12.77;;;9.65;;
22230;SDS011;11284;48.086;-1.652;2023-02-28T16:30:22;13.95;;;9.85;;
22230;SDS011;11284;48.086;-1.652;2023-02-28T16:32:49;13.75;;;9.55;;
22230;SDS011;11284;48.086;-1.652;2023-02-28T16:35:16;13.45;;;9.77;;
22230;SDS011;11284;48.086;-1.652;2023-02-28T16:37:42;13.98;;;9.82;;
22230;SDS011;11284;48.086;-1.652;2023-02-28T16:40:13;13.38;;;10.00;;
22230;SDS011;11284;48.086;-1.652;2023-02-28T16:42:39;13.57;;;10.27;;
22230;SDS011;11284;48.086;-1.652;2023-02-28T16:45:06;11.77;;;9.93;;
22230;SDS011;11284;48.086;-1.652;2023-02-28T16:47:36;15.45;;;11.18;;
22230;SDS011;11284;48.086;-1.652;2023-02-28T16:50:04;15.48;;;11.50;;
22230;SDS011;11284;48.086;-1.652;2023-02-28T16:52:30;14.27;;;10.43;;
22230;SDS011;11284;48.086;-1.652;2023-02-28T16:54:56;14.65;;;11.75;;
22230;SDS011;11284;48.086;-1.652;2023-02-28T16:57:22;15.35;;;11.50;;
22230;SDS011;11284;48.086;-1.652;2023-02-28T16:59:49;16.70;;;11.90;;
22230;SDS011;11284;48.086;-1.652;2023-02-28T17:02:18;14.77;;;12.27;;
22230;SDS011;11284;48.086;-1.652;2023-02-28T17:04:45;19.63;;;12.70;;
22230;SDS011;11284;48.086;-1.652;2023-02-28T17:07:11;17.38;;;12.65;;
22230;SDS011;11284;48.086;-1.652;2023-02-28T17:09:38;15.75;;;12.90;;
22230;SDS011;11284;48.086;-1.652;2023-02-28T17:12:05;18.48;;;12.82;;
22230;SDS011;11284;48.086;-1.652;2023-02-28T17:14:31;16.08;;;12.50;;
22230;SDS011;11284;48.086;-1.652;2023-02-28T17:16:57;15.43;;;11.93;;
22230;SDS011;11284;48.086;-1.652;2023-02-28T17:19:23;17.02;;;12.43;;
22230;SDS011;11284;48.086;-1.652;2023-02-28T17:21:49;15.93;;;12.82;;
22230;SDS011;11284;48.086;-1.652;2023-02-28T17:24:15;17.67;;;13.27;;
22230;SDS011;11284;48.086;-1.652;2023-02-28T17:26:42;17.00;;;13.38;;